Time;durP1;ratioP1;P1;durP2;ratioP2;P2;SDS_P1;SDS_P2;PMS_P1;PMS_P2;Temp;Humidity;BMP_temperature;BMP_pressure;BME280_temperature;BME280_humidity;BME280_pressure;Samples;Min_cycle;Max_cycle;Signal;HPM_P1;HPM_P2
2023/03/03 00:01:49;;;;;;;9.20;8.70;;;;;;;;;;5015576;28;20392;-62
2023/03/03 00:04:14;;;;;;;8.50;8.10;;;;;;;;;;5015444;28;20370;-62
2023/03/03 00:06:39;;;;;;;8.82;8.43;;;;;;;;;;5014454;28;20066;-62
2023/03/03 00:09:04;;;;;;;8.40;8.00;;;;;;;;;;5015543;28;20491;-62
2023/03/03 00:11:30;;;;;;;8.50;8.10;;;;;;;;;;5015438;28;20018;-62
2023/03/03 00:13:55;;;;;;;8.50;8.10;;;;;;;;;;5015450;28;20026;-62
2023/03/03 00:16:31;;;;;;;8.85;8.45;;;;;;;;;;5015351;28;20030;-64
2023/03/03 00:18:56;;;;;;;8.60;8.20;;;;;;;;;;5015507;28;20072;-62
2023/03/03 00:21:24;;;;;;;8.55;8.15;;;;;;;;;;5015328;28;20388;-62
2023/03/03 00:23:50;;;;;;;8.70;8.30;;;;;;;;;;5014449;28;20564;-63
2023/03/03 00:26:17;;;;;;;8.63;8.23;;;;;;;;;;5015604;28;20100;-62
2023/03/03 00:28:50;;;;;;;9.60;9.10;;;;;;;;;;5002096;28;20130;-62
2023/03/03 00:31:17;;;;;;;8.73;8.32;;;;;;;;;;5015085;28;20022;-62
2023/03/03 00:33:45;;;;;;;8.85;8.45;;;;;;;;;;5015071;28;20017;-62
2023/03/03 00:36:14;;;;;;;8.70;8.30;;;;;;;;;;5015014;28;20022;-62
2023/03/03 00:38:39;;;;;;;8.60;8.20;;;;;;;;;;5015200;28;20026;-62
2023/03/03 00:41:25;;;;;;;8.88;8.48;;;;;;;;;;5014204;28;20053;-62
2023/03/03 00:43:50;;;;;;;8.68;8.27;;;;;;;;;;5003857;28;20567;-61
2023/03/03 00:46:20;;;;;;;8.70;8.30;;;;;;;;;;5014125;28;20024;-63
2023/03/03 00:48:46;;;;;;;9.05;8.65;;;;;;;;;;5014524;28;20104;-62
2023/03/03 00:51:24;;;;;;;9.55;9.05;;;;;;;;;;5014493;28;20041;-63
2023/03/03 00:53:49;;;;;;;9.00;8.60;;;;;;;;;;5014269;28;20022;-62
2023/03/03 00:56:15;;;;;;;9.43;9.00;;;;;;;;;;5014886;28;20036;-62
2023/03/03 00:58:40;;;;;;;9.82;9.32;;;;;;;;;;5013621;28;20100;-62
2023/03/03 01:01:06;;;;;;;9.00;8.60;;;;;;;;;;5014520;28;20018;-61
2023/03/03 01:03:31;;;;;;;9.90;9.40;;;;;;;;;;5014620;28;20029;-62
2023/03/03 01:05:56;;;;;;;9.88;9.38;;;;;;;;;;5014550;28;20504;-61
2023/03/03 01:08:22;;;;;;;9.30;8.90;;;;;;;;;;5014015;28;20028;-62
2023/03/03 01:10:49;;;;;;;9.15;8.73;;;;;;;;;;5014493;28;20036;-62
2023/03/03 01:13:15;;;;;;;9.75;9.25;;;;;;;;;;5001713;28;20532;-62
2023/03/03 01:15:41;;;;;;;9.10;8.70;;;;;;;;;;5013300;28;20057;-62
2023/03/03 01:18:06;;;;;;;9.70;9.20;;;;;;;;;;5014330;28;20053;-61
2023/03/03 01:20:32;;;;;;;9.38;8.98;;;;;;;;;;5014377;28;20022;-62
2023/03/03 01:22:57;;;;;;;9.40;9.00;;;;;;;;;;5014725;28;20025;-62
2023/03/03 01:25:22;;;;;;;9.30;8.90;;;;;;;;;;5014348;28;20026;-62
2023/03/03 01:27:48;;;;;;;9.20;8.80;;;;;;;;;;5010811;28;20493;-62
2023/03/03 01:30:13;;;;;;;9.75;9.25;;;;;;;;;;5010855;28;20022;-62
2023/03/03 01:32:39;;;;;;;9.90;9.40;;;;;;;;;;5014451;28;20037;-62
2023/03/03 01:35:04;;;;;;;9.35;8.95;;;;;;;;;;5014385;28;20083;-62
2023/03/03 01:37:30;;;;;;;9.70;9.30;;;;;;;;;;5014394;28;20056;-62
2023/03/03 01:39:55;;;;;;;10.00;9.50;;;;;;;;;;5014072;28;20442;-63
2023/03/03 01:42:20;;;;;;;10.50;10.00;;;;;;;;;;5013757;28;20057;-62
2023/03/03 01:44:46;;;;;;;9.77;9.27;;;;;;;;;;5012492;28;20030;-62
2023/03/03 01:47:16;;;;;;;9.75;9.30;;;;;;;;;;5013651;28;20067;-62
2023/03/03 01:49:55;;;;;;;9.50;9.10;;;;;;;;;;5013757;28;20116;-62
2023/03/03 01:52:26;;;;;;;10.23;9.73;;;;;;;;;;5013692;28;20018;-62
2023/03/03 01:54:54;;;;;;;10.50;10.00;;;;;;;;;;5013712;28;20029;-62
2023/03/03 01:57:23;;;;;;;9.73;9.23;;;;;;;;;;5013490;28;20476;-61
2023/03/03 01:59:50;;;;;;;9.20;8.80;;;;;;;;;;5012795;28;20013;-62
2023/03/03 02:02:15;;;;;;;9.10;8.70;;;;;;;;;;5008640;28;20045;-62
2023/03/03 02:04:40;;;;;;;9.27;8.88;;;;;;;;;;5013345;28;20112;-63
2023/03/03 02:07:09;;;;;;;9.25;8.85;;;;;;;;;;5013340;28;20029;-61
2023/03/03 02:09:53;;;;;;;9.95;9.45;;;;;;;;;;5013126;28;20029;-62
2023/03/03 02:12:21;;;;;;;9.15;8.75;;;;;;;;;;5013601;28;20018;-63
2023/03/03 02:14:46;;;;;;;9.75;9.25;;;;;;;;;;5013359;28;20025;-62
2023/03/03 02:17:12;;;;;;;9.10;8.70;;;;;;;;;;5010078;28;20539;-63
2023/03/03 02:19:43;;;;;;;9.90;9.40;;;;;;;;;;5012224;28;20030;-62
2023/03/03 02:22:08;;;;;;;9.55;9.05;;;;;;;;;;5000490;28;20026;-62
2023/03/03 02:24:37;;;;;;;9.18;8.77;;;;;;;;;;5013101;28;20109;-63
2023/03/03 02:27:03;;;;;;;9.20;8.80;;;;;;;;;;5000215;28;20477;-63
2023/03/03 02:29:28;;;;;;;9.60;9.10;;;;;;;;;;5012900;28;20056;-63
2023/03/03 02:31:53;;;;;;;9.43;9.02;;;;;;;;;;5012912;28;20018;-62
2023/03/03 02:34:19;;;;;;;9.45;9.05;;;;;;;;;;5012921;28;20069;-62
2023/03/03 02:36:44;;;;;;;9.85;9.35;;;;;;;;;;5001495;28;20053;-62
2023/03/03 02:39:09;;;;;;;9.30;8.90;;;;;;;;;;5012886;28;20068;-62
2023/03/03 02:41:38;;;;;;;9.15;8.75;;;;;;;;;;5011798;28;20029;-62
2023/03/03 02:44:05;;;;;;;9.32;8.90;;;;;;;;;;5013021;28;20393;-62
2023/03/03 02:46:33;;;;;;;9.93;9.43;;;;;;;;;;5012683;28;20032;-61
2023/03/03 02:48:58;;;;;;;9.20;8.80;;;;;;;;;;5012869;28;20029;-61
2023/03/03 02:51:23;;;;;;;10.02;9.52;;;;;;;;;;5014981;28;20018;-61
2023/03/03 02:53:49;;;;;;;9.25;8.85;;;;;;;;;;5011661;28;20117;-62
2023/03/03 02:56:14;;;;;;;9.85;9.35;;;;;;;;;;5012573;28;20034;-62
2023/03/03 02:58:39;;;;;;;9.82;9.32;;;;;;;;;;5012626;28;20021;-62
2023/03/03 03:01:05;;;;;;;10.35;9.75;;;;;;;;;;5012619;28;20018;-62
2023/03/03 03:03:30;;;;;;;9.90;9.40;;;;;;;;;;5012530;28;20022;-62
2023/03/03 03:05:55;;;;;;;9.80;9.30;;;;;;;;;;5012642;28;20029;-63
2023/03/03 03:08:21;;;;;;;9.50;9.00;;;;;;;;;;4990202;28;20022;-62
2023/03/03 03:10:46;;;;;;;9.43;9.02;;;;;;;;;;5015068;28;20465;-62
2023/03/03 03:13:11;;;;;;;8.98;8.57;;;;;;;;;;5016356;28;20477;-62
2023/03/03 03:15:37;;;;;;;9.23;8.82;;;;;;;;;;5016818;28;20034;-62
2023/03/03 03:18:02;;;;;;;9.82;9.32;;;;;;;;;;5016660;28;20029;-62
2023/03/03 03:20:28;;;;;;;9.18;8.77;;;;;;;;;;5016399;28;20085;-62
2023/03/03 03:22:53;;;;;;;10.23;9.70;;;;;;;;;;5015440;28;20104;-62
2023/03/03 03:25:18;;;;;;;10.07;9.57;;;;;;;;;;5016571;28;20088;-62
2023/03/03 03:27:44;;;;;;;9.68;9.18;;;;;;;;;;5016421;28;20041;-61
2023/03/03 03:30:09;;;;;;;10.90;10.30;;;;;;;;;;5016168;28;20489;-62
2023/03/03 03:32:35;;;;;;;9.80;9.30;;;;;;;;;;5015986;28;20032;-61
2023/03/03 03:35:00;;;;;;;10.07;9.57;;;;;;;;;;5016235;28;20022;-63
2023/03/03 03:37:25;;;;;;;10.07;9.57;;;;;;;;;;5016200;28;20033;-62
2023/03/03 03:39:51;;;;;;;10.38;9.88;;;;;;;;;;5013070;28;20057;-61
2023/03/03 03:42:16;;;;;;;10.00;9.50;;;;;;;;;;5015920;28;20026;-62
2023/03/03 03:44:41;;;;;;;9.88;9.38;;;;;;;;;;5015923;28;20034;-62
2023/03/03 03:47:06;;;;;;;10.93;10.32;;;;;;;;;;5015824;28;20030;-62
2023/03/03 03:49:32;;;;;;;10.15;9.65;;;;;;;;;;5015895;28;20380;-63
2023/03/03 03:51:57;;;;;;;10.52;9.93;;;;;;;;;;5015765;28;20026;-62
2023/03/03 03:54:22;;;;;;;10.23;9.63;;;;;;;;;;5015672;28;20022;-62
2023/03/03 03:56:48;;;;;;;9.43;8.93;;;;;;;;;;5014729;28;20464;-61
2023/03/03 03:59:13;;;;;;;9.80;9.30;;;;;;;;;;5015196;28;20037;-61
2023/03/03 04:01:38;;;;;;;10.20;9.70;;;;;;;;;;5015669;28;20044;-62
2023/03/03 04:04:04;;;;;;;10.13;9.63;;;;;;;;;;5008089;28;20018;-62
2023/03/03 04:06:29;;;;;;;9.73;9.23;;;;;;;;;;5015293;28;20030;-62
2023/03/03 04:08:55;;;;;;;10.00;9.50;;;;;;;;;;5015361;28;20022;-62
2023/03/03 04:11:20;;;;;;;9.85;9.35;;;;;;;;;;5015367;28;20029;-62
2023/03/03 04:13:46;;;;;;;10.15;9.65;;;;;;;;;;5014583;28;20030;-62
2023/03/03 04:16:11;;;;;;;10.55;9.95;;;;;;;;;;5015462;28;20033;-62
2023/03/03 04:18:36;;;;;;;10.00;9.50;;;;;;;;;;5008792;28;20028;-62
2023/03/03 04:21:02;;;;;;;10.18;9.68;;;;;;;;;;5007775;28;20030;-62
2023/03/03 04:23:27;;;;;;;10.02;9.52;;;;;;;;;;5014609;28;20034;-63
2023/03/03 04:25:52;;;;;;;10.15;9.65;;;;;;;;;;5015308;28;20057;-63
2023/03/03 04:28:17;;;;;;;10.63;10.02;;;;;;;;;;5014280;28;20038;-61
2023/03/03 04:30:43;;;;;;;10.85;10.25;;;;;;;;;;5013556;28;20032;-61
2023/03/03 04:33:09;;;;;;;10.07;9.57;;;;;;;;;;5013861;28;20022;-62
2023/03/03 04:35:34;;;;;;;10.15;9.65;;;;;;;;;;5010347;28;20028;-62
2023/03/03 04:37:59;;;;;;;10.60;10.00;;;;;;;;;;5013722;28;20113;-61
2023/03/03 04:40:24;;;;;;;10.55;10.05;;;;;;;;;;5000667;28;20149;-62
2023/03/03 04:42:50;;;;;;;10.45;9.95;;;;;;;;;;5002263;28;20038;-63
2023/03/03 04:45:15;;;;;;;10.75;10.15;;;;;;;;;;5012631;28;20461;-62
2023/03/03 04:47:40;;;;;;;9.95;9.45;;;;;;;;;;5012599;28;20019;-63
2023/03/03 04:50:06;;;;;;;10.05;9.55;;;;;;;;;;5013616;28;20500;-62
2023/03/03 04:52:32;;;;;;;10.43;9.85;;;;;;;;;;5012908;28;20029;-62
2023/03/03 04:54:57;;;;;;;10.07;9.57;;;;;;;;;;5012372;28;20436;-62
2023/03/03 04:57:22;;;;;;;10.00;9.50;;;;;;;;;;5012227;28;20117;-62
2023/03/03 04:59:47;;;;;;;9.55;9.05;;;;;;;;;;5012180;28;20030;-60
2023/03/03 05:02:13;;;;;;;10.02;9.52;;;;;;;;;;5009530;28;20037;-62
2023/03/03 05:04:39;;;;;;;9.43;8.93;;;;;;;;;;5012882;28;20026;-61
2023/03/03 05:07:04;;;;;;;9.27;8.82;;;;;;;;;;5007760;28;20455;-62
2023/03/03 05:09:29;;;;;;;9.20;8.70;;;;;;;;;;5013357;28;20097;-63
2023/03/03 05:11:55;;;;;;;10.25;9.65;;;;;;;;;;5008757;28;20044;-62
2023/03/03 05:14:20;;;;;;;8.73;8.32;;;;;;;;;;5009287;28;20444;-65
2023/03/03 05:16:45;;;;;;;8.90;8.50;;;;;;;;;;5002182;28;20034;-61
2023/03/03 05:19:11;;;;;;;9.18;8.68;;;;;;;;;;5012791;28;20087;-61
2023/03/03 05:21:36;;;;;;;9.20;8.70;;;;;;;;;;5012362;28;20049;-60
2023/03/03 05:24:01;;;;;;;8.43;8.02;;;;;;;;;;5013262;28;20021;-61
2023/03/03 05:26:26;;;;;;;8.85;8.40;;;;;;;;;;5012861;28;20030;-61
2023/03/03 05:28:52;;;;;;;9.15;8.65;;;;;;;;;;4967845;28;1168152;-61
2023/03/03 05:31:17;;;;;;;10.32;9.73;;;;;;;;;;5012539;28;20109;-62
2023/03/03 05:33:43;;;;;;;8.98;8.55;;;;;;;;;;5015231;28;20033;-61
2023/03/03 05:36:08;;;;;;;8.77;8.38;;;;;;;;;;5013506;28;20018;-60
2023/03/03 05:38:33;;;;;;;9.73;9.23;;;;;;;;;;5013072;28;20084;-61
2023/03/03 05:40:59;;;;;;;9.02;8.63;;;;;;;;;;5013383;28;20075;-60
2023/03/03 05:43:24;;;;;;;9.98;9.48;;;;;;;;;;5014370;28;20038;-60
2023/03/03 05:45:54;;;;;;;9.65;9.15;;;;;;;;;;5014305;28;20025;-60
2023/03/03 05:48:19;;;;;;;11.38;10.77;;;;;;;;;;5018923;28;20393;-61
2023/03/03 05:50:44;;;;;;;10.10;9.60;;;;;;;;;;5005356;28;20100;-61
2023/03/03 05:53:09;;;;;;;9.60;9.10;;;;;;;;;;5013179;28;20029;-63
2023/03/03 05:55:35;;;;;;;9.07;8.68;;;;;;;;;;5011686;28;20532;-63
2023/03/03 05:58:00;;;;;;;9.30;8.90;;;;;;;;;;5003348;28;20101;-61
2023/03/03 06:00:25;;;;;;;9.10;8.70;;;;;;;;;;5013206;28;20489;-61
2023/03/03 06:02:50;;;;;;;9.18;8.77;;;;;;;;;;5013321;28;20046;-63
2023/03/03 06:05:16;;;;;;;9.50;9.10;;;;;;;;;;5013135;28;20022;-62
2023/03/03 06:07:41;;;;;;;9.40;9.00;;;;;;;;;;4995210;28;20017;-62
2023/03/03 06:10:07;;;;;;;9.52;9.13;;;;;;;;;;5013378;28;20079;-61
2023/03/03 06:12:32;;;;;;;9.15;8.75;;;;;;;;;;5011027;28;20380;-61
2023/03/03 06:14:57;;;;;;;9.55;9.15;;;;;;;;;;5013222;28;20382;-62
2023/03/03 06:17:23;;;;;;;9.50;9.10;;;;;;;;;;5010430;28;20032;-62
2023/03/03 06:19:48;;;;;;;10.20;9.70;;;;;;;;;;5011229;28;20022;-61
2023/03/03 06:22:13;;;;;;;9.40;9.00;;;;;;;;;;5023482;28;20183;-61
2023/03/03 06:24:39;;;;;;;9.60;9.20;;;;;;;;;;5012142;28;20440;-61
2023/03/03 06:27:04;;;;;;;10.05;9.60;;;;;;;;;;5012888;28;20028;-61
2023/03/03 06:29:29;;;;;;;9.80;9.40;;;;;;;;;;5011226;28;20056;-61
2023/03/03 06:31:54;;;;;;;10.20;9.70;;;;;;;;;;5008924;28;20029;-62
2023/03/03 06:34:20;;;;;;;9.57;9.18;;;;;;;;;;5013017;28;20025;-61
2023/03/03 06:36:45;;;;;;;10.30;9.80;;;;;;;;;;5013061;28;20018;-62
2023/03/03 06:39:10;;;;;;;9.80;9.40;;;;;;;;;;5013030;28;20060;-61
2023/03/03 06:41:36;;;;;;;10.48;9.98;;;;;;;;;;5005323;28;20065;-63
2023/03/03 06:44:02;;;;;;;10.80;10.30;;;;;;;;;;5011455;28;20022;-61
2023/03/03 06:46:27;;;;;;;9.98;9.57;;;;;;;;;;4997552;28;20524;-62
2023/03/03 06:48:53;;;;;;;10.10;9.68;;;;;;;;;;5012176;28;20022;-63
2023/03/03 06:51:18;;;;;;;9.80;9.40;;;;;;;;;;5012168;28;20029;-62
2023/03/03 06:53:43;;;;;;;9.98;9.57;;;;;;;;;;5012597;28;20026;-62
2023/03/03 06:56:08;;;;;;;10.25;9.80;;;;;;;;;;5012187;28;20046;-63
2023/03/03 06:58:34;;;;;;;9.90;9.50;;;;;;;;;;5011742;28;20079;-63
2023/03/03 07:01:00;;;;;;;9.95;9.55;;;;;;;;;;5009034;28;20025;-62
2023/03/03 07:03:34;;;;;;;9.98;9.57;;;;;;;;;;5012382;28;20036;-62
2023/03/03 07:06:00;;;;;;;9.95;9.55;;;;;;;;;;5012357;28;20024;-62
2023/03/03 07:08:29;;;;;;;10.07;9.68;;;;;;;;;;5012608;28;20068;-62
2023/03/03 07:10:54;;;;;;;10.55;10.05;;;;;;;;;;5012279;28;20018;-62
2023/03/03 07:13:26;;;;;;;9.93;9.52;;;;;;;;;;5008237;28;20388;-62
2023/03/03 07:15:52;;;;;;;10.30;9.82;;;;;;;;;;5011508;28;20030;-61
2023/03/03 07:18:35;;;;;;;10.77;10.27;;;;;;;;;;5008213;28;20401;-63
2023/03/03 07:21:15;;;;;;;10.50;10.00;;;;;;;;;;5001150;28;20027;-61
2023/03/03 07:23:43;;;;;;;11.00;10.50;;;;;;;;;;5005664;28;20109;-63
2023/03/03 07:26:11;;;;;;;11.48;10.98;;;;;;;;;;5006270;28;20034;-64
2023/03/03 07:28:39;;;;;;;12.40;11.80;;;;;;;;;;4997910;28;20050;-66
2023/03/03 07:31:15;;;;;;;11.13;10.63;;;;;;;;;;5001685;28;20335;-66
2023/03/03 07:33:43;;;;;;;10.88;10.38;;;;;;;;;;5014502;28;20030;-66
2023/03/03 07:36:21;;;;;;;10.82;10.32;;;;;;;;;;5009217;28;20030;-64
2023/03/03 07:38:53;;;;;;;10.55;10.05;;;;;;;;;;5002494;28;20029;-64
2023/03/03 07:41:22;;;;;;;10.98;10.48;;;;;;;;;;5003837;28;20497;-64
2023/03/03 07:43:53;;;;;;;11.27;10.77;;;;;;;;;;4994649;28;20112;-64
2023/03/03 07:46:46;;;;;;;11.25;10.75;;;;;;;;;;4999019;28;20038;-65
2023/03/03 07:49:21;;;;;;;11.20;10.70;;;;;;;;;;5002154;28;20030;-64
2023/03/03 07:51:46;;;;;;;;;;;;;;;;;;4999433;28;20034;-63
2023/03/03 07:54:14;;;;;;;10.95;10.45;;;;;;;;;;4999589;28;19952;-64
2023/03/03 07:56:39;;;;;;;11.40;10.90;;;;;;;;;;5022010;28;20026;-63
2023/03/03 07:59:21;;;;;;;10.93;10.43;;;;;;;;;;5018438;28;20385;-64
2023/03/03 08:01:49;;;;;;;10.85;10.35;;;;;;;;;;5003200;28;20017;-63
2023/03/03 08:04:17;;;;;;;10.73;10.23;;;;;;;;;;5020565;28;20524;-63
2023/03/03 08:06:47;;;;;;;11.18;10.68;;;;;;;;;;5018625;28;20599;-62
2023/03/03 08:09:23;;;;;;;11.10;10.60;;;;;;;;;;5011971;28;20366;-63
2023/03/03 08:12:08;;;;;;;11.07;10.57;;;;;;;;;;5017370;28;20030;-62
2023/03/03 08:14:34;;;;;;;11.13;10.63;;;;;;;;;;5011685;28;20128;-63
2023/03/03 08:16:59;;;;;;;10.77;10.27;;;;;;;;;;5022206;28;20075;-63
2023/03/03 08:19:25;;;;;;;11.40;10.90;;;;;;;;;;5027043;28;20033;-65
2023/03/03 08:21:50;;;;;;;11.40;10.90;;;;;;;;;;5018772;28;20022;-66
2023/03/03 08:24:16;;;;;;;10.98;10.48;;;;;;;;;;4992949;28;20026;-66
2023/03/03 08:26:41;;;;;;;10.85;10.35;;;;;;;;;;5012157;28;20033;-65
2023/03/03 08:29:06;;;;;;;11.23;10.73;;;;;;;;;;5017575;28;20107;-62
2023/03/03 08:31:32;;;;;;;11.20;10.70;;;;;;;;;;5025418;28;20525;-63
2023/03/03 08:33:57;;;;;;;11.25;10.75;;;;;;;;;;5016084;28;20029;-63
2023/03/03 08:36:23;;;;;;;10.73;10.23;;;;;;;;;;5013445;28;20428;-63
2023/03/03 08:38:48;;;;;;;10.93;10.43;;;;;;;;;;5013742;28;20052;-64
2023/03/03 08:41:13;;;;;;;11.32;10.82;;;;;;;;;;5015204;28;20396;-64
2023/03/03 08:43:39;;;;;;;11.30;10.80;;;;;;;;;;5017707;28;20060;-64
2023/03/03 08:46:05;;;;;;;10.98;10.48;;;;;;;;;;5015672;28;20018;-62
2023/03/03 08:48:31;;;;;;;11.13;10.63;;;;;;;;;;5014042;28;20014;-64
2023/03/03 08:50:56;;;;;;;11.57;11.07;;;;;;;;;;5007591;28;20021;-63
2023/03/03 08:53:21;;;;;;;11.02;10.52;;;;;;;;;;4999482;28;20025;-63
2023/03/03 08:55:47;;;;;;;10.95;10.45;;;;;;;;;;5013091;28;20026;-64
2023/03/03 08:58:13;;;;;;;11.07;10.57;;;;;;;;;;5020110;28;20021;-64
2023/03/03 09:00:38;;;;;;;11.05;10.55;;;;;;;;;;5023203;28;20133;-64
2023/03/03 09:03:06;;;;;;;11.00;10.50;;;;;;;;;;5019868;28;20096;-64
2023/03/03 09:05:31;;;;;;;10.70;10.20;;;;;;;;;;5007596;28;20446;-64
2023/03/03 09:07:57;;;;;;;10.73;10.23;;;;;;;;;;5005827;28;20034;-64
2023/03/03 09:10:26;;;;;;;11.45;10.95;;;;;;;;;;5017867;28;20076;-63
2023/03/03 09:12:52;;;;;;;11.05;10.55;;;;;;;;;;5012700;28;20028;-64
2023/03/03 09:15:20;;;;;;;11.10;10.60;;;;;;;;;;5013733;28;20364;-63
2023/03/03 09:17:45;;;;;;;10.57;10.07;;;;;;;;;;5015013;28;20165;-63
2023/03/03 09:20:16;;;;;;;10.82;10.32;;;;;;;;;;5012564;28;20029;-64
2023/03/03 09:22:43;;;;;;;11.02;10.52;;;;;;;;;;5011238;28;20370;-63
2023/03/03 09:25:18;;;;;;;10.73;10.23;;;;;;;;;;4996800;28;20103;-65
2023/03/03 09:27:43;;;;;;;10.48;9.98;;;;;;;;;;4997216;28;20462;-62
2023/03/03 09:30:27;;;;;;;10.98;10.48;;;;;;;;;;4999379;28;20110;-64
2023/03/03 09:32:55;;;;;;;10.68;10.18;;;;;;;;;;4998588;28;20093;-65
2023/03/03 09:35:37;;;;;;;10.80;10.30;;;;;;;;;;5007313;28;20480;-64
2023/03/03 09:38:25;;;;;;;11.35;10.85;;;;;;;;;;5008456;28;20408;-63
2023/03/03 09:40:54;;;;;;;10.60;10.10;;;;;;;;;;4988528;28;20044;-65
2023/03/03 09:43:40;;;;;;;10.90;10.40;;;;;;;;;;5003404;28;20026;-65
2023/03/03 09:46:32;;;;;;;10.90;10.40;;;;;;;;;;4997379;28;20457;-65
2023/03/03 09:49:16;;;;;;;11.02;10.52;;;;;;;;;;4993803;28;20021;-66
2023/03/03 09:51:41;;;;;;;11.13;10.63;;;;;;;;;;5014299;28;20022;-66
2023/03/03 09:54:07;;;;;;;11.95;11.35;;;;;;;;;;5004817;28;20052;-64
2023/03/03 09:56:41;;;;;;;11.07;10.57;;;;;;;;;;5006014;28;20025;-63
2023/03/03 09:59:13;;;;;;;11.25;10.75;;;;;;;;;;4997049;28;20143;-62
2023/03/03 10:01:47;;;;;;;11.55;10.98;;;;;;;;;;5013827;28;20033;-63
2023/03/03 10:04:31;;;;;;;12.23;11.63;;;;;;;;;;5005094;28;20096;-63
2023/03/03 10:07:00;;;;;;;11.32;10.77;;;;;;;;;;5010978;28;20542;-65
2023/03/03 10:09:43;;;;;;;11.82;11.23;;;;;;;;;;5002264;28;20469;-65
2023/03/03 10:12:30;;;;;;;11.90;11.30;;;;;;;;;;5015569;28;20448;-64
2023/03/03 10:15:02;;;;;;;12.35;11.65;;;;;;;;;;5014336;28;20031;-64
2023/03/03 10:17:36;;;;;;;11.60;11.00;;;;;;;;;;5006643;28;20132;-64
2023/03/03 10:20:01;;;;;;;12.32;11.63;;;;;;;;;;5008953;28;20033;-65
2023/03/03 10:22:45;;;;;;;12.18;11.48;;;;;;;;;;5008243;28;20026;-65
2023/03/03 10:25:22;;;;;;;12.25;11.55;;;;;;;;;;5005843;28;20025;-62
2023/03/03 10:27:47;;;;;;;11.65;11.05;;;;;;;;;;5007112;28;20057;-63
2023/03/03 10:30:27;;;;;;;12.30;11.60;;;;;;;;;;5003357;28;20405;-63
2023/03/03 10:33:10;;;;;;;11.60;11.00;;;;;;;;;;4999881;28;20029;-62
2023/03/03 10:35:54;;;;;;;11.93;11.23;;;;;;;;;;4997059;28;20119;-63
2023/03/03 10:38:25;;;;;;;13.00;12.20;;;;;;;;;;5012462;28;20073;-62
2023/03/03 10:41:09;;;;;;;12.00;11.32;;;;;;;;;;4992828;28;20843;-63
2023/03/03 10:43:47;;;;;;;12.73;11.98;;;;;;;;;;5001090;28;20083;-63
2023/03/03 10:46:18;;;;;;;12.35;11.65;;;;;;;;;;4995636;28;20057;-62
2023/03/03 10:48:56;;;;;;;12.75;12.00;;;;;;;;;;4994551;28;20018;-62
2023/03/03 10:51:25;;;;;;;12.50;11.80;;;;;;;;;;4998517;28;20034;-64
2023/03/03 10:53:50;;;;;;;12.18;11.48;;;;;;;;;;5004366;28;20033;-63
2023/03/03 10:56:15;;;;;;;12.13;11.43;;;;;;;;;;5001766;28;20017;-63
2023/03/03 10:58:45;;;;;;;12.50;11.80;;;;;;;;;;5003570;28;20033;-63
2023/03/03 11:01:16;;;;;;;12.32;11.63;;;;;;;;;;5001276;28;20294;-64
2023/03/03 11:04:00;;;;;;;12.00;11.30;;;;;;;;;;4998648;28;20076;-65
2023/03/03 11:06:36;;;;;;;13.05;12.25;;;;;;;;;;5001012;28;20061;-62
2023/03/03 11:09:24;;;;;;;12.60;11.82;;;;;;;;;;4999619;28;20064;-62
2023/03/03 11:12:16;;;;;;;13.55;12.65;;;;;;;;;;4973553;28;20040;-63
2023/03/03 11:14:50;;;;;;;12.93;12.13;;;;;;;;;;4961564;28;20122;-60
2023/03/03 11:17:22;;;;;;;13.48;12.63;;;;;;;;;;4996049;28;20028;-61
2023/03/03 11:19:53;;;;;;;12.68;11.88;;;;;;;;;;4996570;28;20041;-63
2023/03/03 11:22:25;;;;;;;13.00;12.20;;;;;;;;;;5001774;28;20050;-62
2023/03/03 11:25:00;;;;;;;11.93;11.23;;;;;;;;;;4998041;28;20036;-64
2023/03/03 11:27:31;;;;;;;13.30;12.50;;;;;;;;;;5006045;28;20030;-63
2023/03/03 11:30:16;;;;;;;13.50;12.68;;;;;;;;;;5001926;28;20435;-63
2023/03/03 11:32:47;;;;;;;12.82;12.05;;;;;;;;;;4968876;28;20034;-63
2023/03/03 11:35:34;;;;;;;11.73;11.07;;;;;;;;;;5007780;28;20623;-63
2023/03/03 11:38:07;;;;;;;13.00;12.20;;;;;;;;;;5006441;28;20038;-63
2023/03/03 11:40:36;;;;;;;12.80;12.00;;;;;;;;;;5005849;28;20787;-63
2023/03/03 11:43:01;;;;;;;12.02;11.32;;;;;;;;;;4997776;28;20280;-63
2023/03/03 11:45:48;;;;;;;11.40;10.80;;;;;;;;;;5002747;28;20038;-63
2023/03/03 11:48:26;;;;;;;12.23;11.52;;;;;;;;;;5007706;28;20034;-64
2023/03/03 11:50:57;;;;;;;12.88;12.07;;;;;;;;;;5001532;28;20022;-62
2023/03/03 11:53:31;;;;;;;12.73;11.93;;;;;;;;;;5000649;28;20026;-63
2023/03/03 11:56:00;;;;;;;13.02;12.23;;;;;;;;;;4993510;28;20087;-63
2023/03/03 11:58:30;;;;;;;11.93;11.23;;;;;;;;;;5006113;28;20026;-63
2023/03/03 12:01:01;;;;;;;12.95;12.15;;;;;;;;;;4999894;28;20060;-63
2023/03/03 12:03:42;;;;;;;13.07;12.27;;;;;;;;;;4999585;28;20076;-60
2023/03/03 12:06:13;;;;;;;11.45;10.85;;;;;;;;;;5009188;28;20034;-60
2023/03/03 12:08:53;;;;;;;11.35;10.75;;;;;;;;;;5013332;28;20480;-60
2023/03/03 12:11:31;;;;;;;11.75;11.05;;;;;;;;;;5004086;28;20910;-63
2023/03/03 12:14:08;;;;;;;11.40;10.80;;;;;;;;;;4998305;28;20528;-62
2023/03/03 12:16:53;;;;;;;11.05;10.45;;;;;;;;;;5003463;28;20038;-63
2023/03/03 12:19:37;;;;;;;11.85;11.15;;;;;;;;;;5010086;28;20040;-63
2023/03/03 12:22:25;;;;;;;11.13;10.53;;;;;;;;;;4999555;28;20421;-63
2023/03/03 12:24:50;;;;;;;10.63;10.13;;;;;;;;;;5004495;28;20294;-63
2023/03/03 12:27:23;;;;;;;11.65;11.05;;;;;;;;;;5008294;28;20466;-63
2023/03/03 12:29:57;;;;;;;11.15;10.55;;;;;;;;;;5007117;28;20046;-62
2023/03/03 12:32:42;;;;;;;11.20;10.60;;;;;;;;;;5006637;28;20485;-63
2023/03/03 12:35:19;;;;;;;11.80;11.15;;;;;;;;;;4996789;28;20037;-64
2023/03/03 12:37:44;;;;;;;11.40;10.80;;;;;;;;;;5005101;28;20125;-65
2023/03/03 12:40:15;;;;;;;11.07;10.48;;;;;;;;;;5014402;28;20026;-64
2023/03/03 12:42:46;;;;;;;11.23;10.63;;;;;;;;;;5012386;28;20029;-62
2023/03/03 12:45:30;;;;;;;12.43;11.73;;;;;;;;;;4999446;28;20076;-64
2023/03/03 12:47:59;;;;;;;10.93;10.32;;;;;;;;;;5007960;28;20080;-63
2023/03/03 12:50:48;;;;;;;11.68;11.07;;;;;;;;;;5020337;28;20022;-62
2023/03/03 12:53:25;;;;;;;11.45;10.85;;;;;;;;;;5005292;28;20496;-65
2023/03/03 12:55:52;;;;;;;11.05;10.45;;;;;;;;;;5003907;28;20037;-65
2023/03/03 12:58:20;;;;;;;11.40;10.80;;;;;;;;;;5001283;28;20117;-65
2023/03/03 13:00:51;;;;;;;12.35;11.65;;;;;;;;;;5009756;28;20393;-64
2023/03/03 13:03:46;;;;;;;11.27;10.68;;;;;;;;;;5017484;28;20365;-64
2023/03/03 13:06:29;;;;;;;11.25;10.65;;;;;;;;;;4945353;28;20039;-62
2023/03/03 13:09:04;;;;;;;10.25;9.75;;;;;;;;;;5008462;28;20502;-63
2023/03/03 13:11:32;;;;;;;11.00;10.40;;;;;;;;;;5000190;28;20025;-63
2023/03/03 13:14:01;;;;;;;12.23;11.52;;;;;;;;;;5002067;28;20493;-64
2023/03/03 13:16:30;;;;;;;10.85;10.25;;;;;;;;;;5000534;28;20786;-63
2023/03/03 13:19:04;;;;;;;10.77;10.23;;;;;;;;;;5015363;28;20030;-63
2023/03/03 13:21:30;;;;;;;;;;;;;;;;;;5007967;28;20033;-63
2023/03/03 13:23:56;;;;;;;12.82;12.07;;;;;;;;;;5011199;28;20296;-64
2023/03/03 13:26:29;;;;;;;10.05;9.55;;;;;;;;;;5010020;28;20485;-63
2023/03/03 13:29:07;;;;;;;11.23;10.63;;;;;;;;;;5007936;28;20042;-63
2023/03/03 13:31:34;;;;;;;11.50;10.90;;;;;;;;;;4994092;28;20385;-62
2023/03/03 13:34:00;;;;;;;11.95;11.27;;;;;;;;;;4997636;28;20149;-65
2023/03/03 13:36:49;;;;;;;11.90;11.20;;;;;;;;;;5006438;28;20022;-64
2023/03/03 13:39:32;;;;;;;10.65;10.07;;;;;;;;;;4961516;28;20038;-64
2023/03/03 13:42:10;;;;;;;11.57;10.98;;;;;;;;;;5013936;28;20392;-64
2023/03/03 13:44:40;;;;;;;11.63;11.02;;;;;;;;;;5018815;28;20084;-64
2023/03/03 13:47:18;;;;;;;11.75;11.10;;;;;;;;;;5012514;28;20029;-64
2023/03/03 13:49:56;;;;;;;11.30;10.70;;;;;;;;;;5009969;28;20057;-65
2023/03/03 13:52:22;;;;;;;12.35;11.65;;;;;;;;;;5016065;28;20496;-65
2023/03/03 13:55:20;;;;;;;11.60;11.00;;;;;;;;;;5010589;28;20025;-64
2023/03/03 13:58:04;;;;;;;10.75;10.20;;;;;;;;;;4973754;28;20042;-64
2023/03/03 14:00:48;;;;;;;10.97;10.37;;;;;;;;;;5007455;28;20033;-64
2023/03/03 14:03:18;;;;;;;10.57;10.03;;;;;;;;;;5008448;28;21087;-64
2023/03/03 14:05:48;;;;;;;11.00;10.40;;;;;;;;;;5001115;28;20279;-63
2023/03/03 14:08:19;;;;;;;12.23;11.52;;;;;;;;;;4999889;28;20137;-63
2023/03/03 14:10:56;;;;;;;13.23;12.43;;;;;;;;;;5003536;28;20025;-62
2023/03/03 14:13:44;;;;;;;12.43;11.73;;;;;;;;;;5008373;28;20493;-63
2023/03/03 14:16:14;;;;;;;11.45;10.85;;;;;;;;;;4976062;28;20041;-63
2023/03/03 14:18:43;;;;;;;12.48;11.77;;;;;;;;;;5009479;28;20477;-63
2023/03/03 14:21:18;;;;;;;12.30;11.60;;;;;;;;;;5003707;28;20034;-63
2023/03/03 14:23:56;;;;;;;13.10;12.30;;;;;;;;;;4996600;28;20553;-63
2023/03/03 14:26:21;;;;;;;11.88;11.20;;;;;;;;;;4993620;28;20112;-62
2023/03/03 14:28:48;;;;;;;12.18;11.48;;;;;;;;;;5005863;28;20627;-64
2023/03/03 14:31:21;;;;;;;12.30;11.60;;;;;;;;;;4994448;28;20048;-63
2023/03/03 14:34:15;;;;;;;11.95;11.25;;;;;;;;;;5003459;28;20017;-63
2023/03/03 14:36:42;;;;;;;13.25;12.45;;;;;;;;;;4985349;28;20104;-63
2023/03/03 14:39:25;;;;;;;13.38;12.57;;;;;;;;;;4997019;28;20027;-65
2023/03/03 14:41:52;;;;;;;11.30;10.70;;;;;;;;;;5006378;28;20025;-64
2023/03/03 14:44:24;;;;;;;11.27;10.68;;;;;;;;;;4994486;28;20026;-64